Time;durP1;ratioP1;P1;durP2;ratioP2;P2;SDS_P1;SDS_P2;PMS_P1;PMS_P2;Temp;Humidity;BMP_temperature;BMP_pressure;BME280_temperature;BME280_humidity;BME280_pressure;Samples;Min_cycle;Max_cycle;Signal;HPM_P1;HPM_P2
2022/02/22 00:00:46;;;;;;;7.13;2.40;;;;;;;;;;5077952;28;24950;-54
2022/02/22 00:03:11;;;;;;;3.33;2.10;;;;;;;;;;5068391;28;24421;-54
2022/02/22 00:05:38;;;;;;;4.78;2.30;;;;;;;;;;5071360;28;24457;-55
2022/02/22 00:08:03;;;;;;;5.63;2.10;;;;;;;;;;5069081;28;25037;-55
2022/02/22 00:10:28;;;;;;;4.47;1.97;;;;;;;;;;5065956;28;24423;-54
2022/02/22 00:12:54;;;;;;;5.53;2.25;;;;;;;;;;5066549;28;24967;-54
2022/02/22 00:21:37;;;;;;;3.80;1.90;;;;;;;;;;5039711;28;24450;-83
2022/02/22 00:24:02;;;;;;;3.00;1.70;;;;;;;;;;5053253;28;24419;-83
2022/02/22 00:26:27;;;;;;;4.40;1.80;;;;;;;;;;5052657;28;24416;-84
2022/02/22 00:28:52;;;;;;;4.07;1.60;;;;;;;;;;5053399;28;24750;-83
2022/02/22 00:31:18;;;;;;;3.37;1.70;;;;;;;;;;5054154;28;24438;-84
2022/02/22 00:33:44;;;;;;;4.30;1.50;;;;;;;;;;5051390;28;24435;-84
2022/02/22 00:36:09;;;;;;;3.30;1.80;;;;;;;;;;5047446;28;24410;-83
2022/02/22 00:41:06;;;;;;;3.65;1.80;;;;;;;;;;5032808;28;24848;-52
2022/02/22 00:43:31;;;;;;;4.90;1.80;;;;;;;;;;5057203;28;24418;-51
2022/02/22 00:45:56;;;;;;;4.05;1.50;;;;;;;;;;5045741;28;24727;-52
2022/02/22 00:48:22;;;;;;;3.03;1.52;;;;;;;;;;5029525;28;24461;-52
2022/02/22 00:50:47;;;;;;;3.17;1.20;;;;;;;;;;5046207;28;24426;-52
2022/02/22 00:53:12;;;;;;;5.18;1.70;;;;;;;;;;5043938;28;24419;-51
2022/02/22 00:55:37;;;;;;;2.92;1.50;;;;;;;;;;5041774;28;24438;-51
2022/02/22 00:58:02;;;;;;;2.53;1.15;;;;;;;;;;5050369;28;24518;-51
2022/02/22 01:00:27;;;;;;;4.32;1.52;;;;;;;;;;5052196;28;24987;-52
2022/02/22 01:02:52;;;;;;;4.70;1.77;;;;;;;;;;5045321;28;24408;-52
2022/02/22 01:05:18;;;;;;;3.53;1.63;;;;;;;;;;5033587;28;24930;-52
2022/02/22 01:07:43;;;;;;;4.67;1.90;;;;;;;;;;5046630;28;24415;-51
2022/02/22 01:10:08;;;;;;;3.47;1.43;;;;;;;;;;5054726;28;24549;-51
2022/02/22 01:12:33;;;;;;;3.97;1.40;;;;;;;;;;5044119;28;25063;-51
2022/02/22 01:14:59;;;;;;;3.10;1.60;;;;;;;;;;5044282;28;25302;-51
2022/02/22 01:17:24;;;;;;;4.10;1.50;;;;;;;;;;5046892;28;24430;-52
2022/02/22 01:19:49;;;;;;;4.77;1.60;;;;;;;;;;5066729;28;24407;-52
2022/02/22 01:22:14;;;;;;;3.50;1.75;;;;;;;;;;5083312;28;24418;-51
2022/02/22 01:24:39;;;;;;;3.20;1.60;;;;;;;;;;5067271;28;24427;-52
2022/02/22 01:27:05;;;;;;;3.15;1.58;;;;;;;;;;5075733;28;24472;-50
2022/02/22 01:29:30;;;;;;;1.97;1.50;;;;;;;;;;5074809;28;24871;-52
2022/02/22 01:31:56;;;;;;;6.70;1.73;;;;;;;;;;5066612;28;24437;-51
2022/02/22 01:34:21;;;;;;;3.50;1.40;;;;;;;;;;5066611;28;24411;-51
2022/02/22 01:36:46;;;;;;;2.30;1.40;;;;;;;;;;5066536;28;24414;-51
2022/02/22 01:39:12;;;;;;;3.75;1.50;;;;;;;;;;5065851;28;24509;-52
2022/02/22 01:41:38;;;;;;;4.80;1.50;;;;;;;;;;5068502;28;24446;-53
2022/02/22 01:44:03;;;;;;;3.67;1.60;;;;;;;;;;5052077;28;24464;-52
2022/02/22 01:46:29;;;;;;;3.77;1.30;;;;;;;;;;5066212;28;24981;-52
2022/02/22 01:48:54;;;;;;;2.90;1.50;;;;;;;;;;5078452;28;24406;-52
2022/02/22 01:51:19;;;;;;;3.60;1.50;;;;;;;;;;5067371;28;24427;-52
2022/02/22 01:53:44;;;;;;;1.00;1.00;;;;;;;;;;5066085;28;24560;-51
2022/02/22 01:56:11;;;;;;;3.53;1.50;;;;;;;;;;5067995;28;24415;-51
2022/02/22 01:58:36;;;;;;;2.00;1.50;;;;;;;;;;5066739;28;24513;-51
2022/02/22 02:01:01;;;;;;;2.70;1.53;;;;;;;;;;5066360;28;24867;-50
2022/02/22 02:03:26;;;;;;;3.50;1.30;;;;;;;;;;5065489;28;24415;-51
2022/02/22 02:05:52;;;;;;;3.00;1.50;;;;;;;;;;5066312;28;24422;-51
2022/02/22 02:08:17;;;;;;;4.57;1.60;;;;;;;;;;5065455;28;24476;-51
2022/02/22 02:10:42;;;;;;;2.50;1.40;;;;;;;;;;5063196;28;24765;-51
2022/02/22 02:13:08;;;;;;;2.33;1.60;;;;;;;;;;5069625;28;24417;-51
2022/02/22 02:15:33;;;;;;;2.50;1.50;;;;;;;;;;5068773;28;24978;-51
2022/02/22 02:17:58;;;;;;;1.70;1.60;;;;;;;;;;5065357;28;24422;-52
2022/02/22 02:20:23;;;;;;;3.13;1.70;;;;;;;;;;5070730;28;24922;-52
2022/02/22 02:22:48;;;;;;;2.83;1.70;;;;;;;;;;5063358;28;25041;-51
2022/02/22 02:25:14;;;;;;;1.70;1.40;;;;;;;;;;5065241;28;24471;-51
2022/02/22 02:27:39;;;;;;;1.75;1.40;;;;;;;;;;5074989;28;24422;-51
2022/02/22 02:30:05;;;;;;;1.50;1.20;;;;;;;;;;5065249;28;24992;-51
2022/02/22 02:32:31;;;;;;;2.72;1.40;;;;;;;;;;5064998;28;24461;-52
2022/02/22 02:34:56;;;;;;;2.17;1.30;;;;;;;;;;5069112;28;24772;-52
2022/02/22 02:37:22;;;;;;;1.80;1.30;;;;;;;;;;5065602;28;25221;-52
2022/02/22 02:39:47;;;;;;;1.40;1.27;;;;;;;;;;5065285;28;24438;-52
2022/02/22 02:42:16;;;;;;;2.80;1.40;;;;;;;;;;5065664;28;24966;-52
2022/02/22 02:44:41;;;;;;;2.47;1.30;;;;;;;;;;5065493;28;24445;-52
2022/02/22 02:47:06;;;;;;;2.60;1.00;;;;;;;;;;5073373;28;24931;-51
2022/02/22 02:49:32;;;;;;;1.38;1.00;;;;;;;;;;5064972;28;24492;-52
2022/02/22 02:51:57;;;;;;;1.80;1.10;;;;;;;;;;5076935;28;24426;-51
2022/02/22 02:54:22;;;;;;;1.45;1.00;;;;;;;;;;5066939;28;25030;-52
2022/02/22 02:56:47;;;;;;;1.48;1.00;;;;;;;;;;5071587;28;24993;-52
2022/02/22 02:59:12;;;;;;;1.10;1.00;;;;;;;;;;5076405;28;24468;-53
2022/02/22 03:01:38;;;;;;;1.87;1.00;;;;;;;;;;5064747;28;24522;-52
2022/02/22 03:04:04;;;;;;;1.70;1.00;;;;;;;;;;5065378;28;24509;-52
2022/02/22 03:06:29;;;;;;;3.13;1.40;;;;;;;;;;5065350;28;24521;-52
2022/02/22 03:08:54;;;;;;;1.33;1.20;;;;;;;;;;5065315;28;24445;-53
2022/02/22 03:11:20;;;;;;;1.70;1.10;;;;;;;;;;5065189;28;24427;-51
2022/02/22 03:13:45;;;;;;;2.20;1.00;;;;;;;;;;5065177;28;24833;-52
2022/02/22 03:16:10;;;;;;;2.17;1.20;;;;;;;;;;5065131;28;24418;-52
2022/02/22 03:18:35;;;;;;;2.03;1.20;;;;;;;;;;5065357;28;24990;-52
2022/02/22 03:21:01;;;;;;;2.17;1.10;;;;;;;;;;5069636;28;24421;-53
2022/02/22 03:23:26;;;;;;;2.60;1.20;;;;;;;;;;5085103;28;24391;-53
2022/02/22 03:25:51;;;;;;;3.30;1.30;;;;;;;;;;5065782;28;24446;-51
2022/02/22 03:28:17;;;;;;;4.17;1.30;;;;;;;;;;5076250;28;24518;-52
2022/02/22 03:30:42;;;;;;;2.17;1.30;;;;;;;;;;5066363;28;24550;-53
2022/02/22 03:33:08;;;;;;;3.80;1.33;;;;;;;;;;5065281;28;24505;-52
2022/02/22 03:35:34;;;;;;;1.97;1.43;;;;;;;;;;5064228;28;24852;-52
2022/02/22 03:37:59;;;;;;;2.70;1.50;;;;;;;;;;5065159;28;24517;-52
2022/02/22 03:40:24;;;;;;;2.50;1.33;;;;;;;;;;5066989;28;24439;-52
2022/02/22 03:42:49;;;;;;;2.17;1.40;;;;;;;;;;5069109;28;24947;-52
2022/02/22 03:45:15;;;;;;;2.40;1.20;;;;;;;;;;5068308;28;24426;-52
2022/02/22 03:47:40;;;;;;;1.93;1.30;;;;;;;;;;5063715;28;24784;-51
2022/02/22 03:50:07;;;;;;;2.40;1.40;;;;;;;;;;5082870;28;24555;-51
2022/02/22 03:52:32;;;;;;;2.13;1.48;;;;;;;;;;5088820;28;24955;-53
2022/02/22 03:54:57;;;;;;;3.50;1.37;;;;;;;;;;5072242;28;24426;-51
2022/02/22 03:57:22;;;;;;;2.30;1.10;;;;;;;;;;5073473;28;24480;-51
2022/02/22 03:59:48;;;;;;;1.95;1.30;;;;;;;;;;5069545;28;25017;-52
2022/02/22 04:02:13;;;;;;;2.43;1.30;;;;;;;;;;5067953;28;24418;-52
2022/02/22 04:04:38;;;;;;;2.20;1.30;;;;;;;;;;5068603;28;24418;-52
2022/02/22 04:07:03;;;;;;;2.58;1.50;;;;;;;;;;5068325;28;24556;-52
2022/02/22 04:09:28;;;;;;;2.23;1.30;;;;;;;;;;5067949;28;24928;-52
2022/02/22 04:11:53;;;;;;;1.83;1.60;;;;;;;;;;5069828;28;24533;-51
2022/02/22 04:14:19;;;;;;;3.07;1.40;;;;;;;;;;5067556;28;24423;-51
2022/02/22 04:16:44;;;;;;;2.35;1.45;;;;;;;;;;5067851;28;24421;-51
2022/02/22 04:19:09;;;;;;;2.63;1.80;;;;;;;;;;5068513;28;25010;-52
2022/02/22 04:21:34;;;;;;;3.83;1.80;;;;;;;;;;5066305;28;24508;-52
2022/02/22 04:24:00;;;;;;;4.05;1.73;;;;;;;;;;5065891;28;24413;-52
2022/02/22 04:26:25;;;;;;;2.58;2.00;;;;;;;;;;5067366;28;24503;-52
2022/02/22 04:28:52;;;;;;;2.77;1.97;;;;;;;;;;5065265;28;24527;-52
2022/02/22 04:31:17;;;;;;;2.90;2.00;;;;;;;;;;5067851;28;24426;-52
2022/02/22 04:33:42;;;;;;;2.13;1.42;;;;;;;;;;5076163;28;24521;-52
2022/02/22 04:36:09;;;;;;;1.67;1.58;;;;;;;;;;5067512;28;24541;-52
2022/02/22 04:38:34;;;;;;;1.60;1.50;;;;;;;;;;5081590;28;24503;-52
2022/02/22 04:40:59;;;;;;;2.00;1.60;;;;;;;;;;5066637;28;24617;-52
2022/02/22 04:43:24;;;;;;;1.70;1.60;;;;;;;;;;5065218;28;24434;-52
2022/02/22 04:45:49;;;;;;;3.03;1.70;;;;;;;;;;5064314;28;24507;-52
2022/02/22 04:48:15;;;;;;;2.83;1.70;;;;;;;;;;5068265;28;24716;-52
2022/02/22 04:50:40;;;;;;;2.73;1.70;;;;;;;;;;5062970;28;24521;-51
2022/02/22 04:53:08;;;;;;;3.40;1.80;;;;;;;;;;5065756;28;24805;-51
2022/02/22 04:55:33;;;;;;;5.00;2.33;;;;;;;;;;5058736;28;24430;-51
2022/02/22 04:57:58;;;;;;;5.30;2.22;;;;;;;;;;5060859;28;24951;-52
2022/02/22 05:00:23;;;;;;;6.57;2.00;;;;;;;;;;5066766;28;24530;-51
2022/02/22 05:02:49;;;;;;;8.15;2.70;;;;;;;;;;5065971;28;24419;-51
2022/02/22 05:05:14;;;;;;;7.37;2.40;;;;;;;;;;5065898;28;24457;-52
2022/02/22 05:07:39;;;;;;;9.85;3.00;;;;;;;;;;5066974;28;24453;-52
2022/02/22 05:10:04;;;;;;;7.60;2.80;;;;;;;;;;5072560;28;24477;-52
2022/02/22 05:12:30;;;;;;;9.40;2.73;;;;;;;;;;5064222;28;24427;-51
2022/02/22 05:14:55;;;;;;;9.07;3.20;;;;;;;;;;5068696;28;24425;-52
2022/02/22 05:17:20;;;;;;;9.20;2.73;;;;;;;;;;5073726;28;24471;-52
2022/02/22 05:19:45;;;;;;;10.93;3.10;;;;;;;;;;5067778;28;24514;-51
2022/02/22 05:22:10;;;;;;;8.07;3.00;;;;;;;;;;5065961;28;24395;-51
2022/02/22 05:24:35;;;;;;;8.18;3.10;;;;;;;;;;5063729;28;24433;-51
2022/02/22 05:27:01;;;;;;;9.00;3.30;;;;;;;;;;5063390;28;24442;-52
2022/02/22 05:29:26;;;;;;;10.17;3.30;;;;;;;;;;5065147;28;24427;-51
2022/02/22 05:31:51;;;;;;;11.95;3.60;;;;;;;;;;5063860;28;24959;-51
2022/02/22 05:34:16;;;;;;;11.60;3.40;;;;;;;;;;5065198;28;24999;-51
2022/02/22 05:36:41;;;;;;;8.45;3.10;;;;;;;;;;5072709;28;24453;-51
2022/02/22 05:39:06;;;;;;;11.57;3.60;;;;;;;;;;5062090;28;24462;-52
2022/02/22 05:41:32;;;;;;;8.83;3.50;;;;;;;;;;5064283;28;24546;-52
2022/02/22 05:43:57;;;;;;;9.57;2.80;;;;;;;;;;5066276;28;25044;-51
2022/02/22 05:46:22;;;;;;;12.55;3.60;;;;;;;;;;5066881;28;24473;-51
2022/02/22 05:48:47;;;;;;;9.95;3.05;;;;;;;;;;5080774;28;24475;-51
2022/02/22 05:51:13;;;;;;;7.87;2.80;;;;;;;;;;5081077;28;24414;-51
2022/02/22 05:53:38;;;;;;;9.43;3.60;;;;;;;;;;5072081;28;24557;-52
2022/02/22 05:56:04;;;;;;;14.30;3.35;;;;;;;;;;5073301;28;24429;-52
2022/02/22 05:58:29;;;;;;;10.95;2.97;;;;;;;;;;5064280;28;24499;-52
2022/02/22 06:00:54;;;;;;;10.37;3.47;;;;;;;;;;5071622;28;24418;-51
2022/02/22 06:03:19;;;;;;;9.98;3.42;;;;;;;;;;5072018;28;24461;-51
2022/02/22 06:05:44;;;;;;;8.05;3.45;;;;;;;;;;5066628;28;24419;-51
2022/02/22 06:08:10;;;;;;;8.75;3.22;;;;;;;;;;5085213;28;25243;-52
2022/02/22 06:10:35;;;;;;;10.55;3.10;;;;;;;;;;5081048;28;24513;-51
2022/02/22 06:13:00;;;;;;;11.85;3.60;;;;;;;;;;5075175;28;24427;-52
2022/02/22 06:15:25;;;;;;;8.82;3.60;;;;;;;;;;5068522;28;24489;-52
2022/02/22 06:17:50;;;;;;;10.63;3.30;;;;;;;;;;5078618;28;24569;-52
2022/02/22 06:20:16;;;;;;;9.90;3.20;;;;;;;;;;5077751;28;24958;-52
2022/02/22 06:22:41;;;;;;;11.30;3.50;;;;;;;;;;5072734;28;24411;-52
2022/02/22 06:25:07;;;;;;;10.18;3.30;;;;;;;;;;5064757;28;24906;-51
2022/02/22 06:27:33;;;;;;;9.65;3.60;;;;;;;;;;5064742;28;25128;-53
2022/02/22 06:29:58;;;;;;;14.40;3.70;;;;;;;;;;5065214;28;24477;-53
2022/02/22 06:32:23;;;;;;;10.50;3.50;;;;;;;;;;5065518;28;24413;-52
2022/02/22 06:34:48;;;;;;;10.53;3.37;;;;;;;;;;5065712;28;24828;-52
2022/02/22 06:37:13;;;;;;;9.70;3.40;;;;;;;;;;5063813;28;24449;-54
2022/02/22 06:39:39;;;;;;;9.23;3.33;;;;;;;;;;5065316;28;24513;-52
2022/02/22 06:42:04;;;;;;;13.47;3.70;;;;;;;;;;5065419;28;25007;-52
2022/02/22 06:44:29;;;;;;;12.98;3.50;;;;;;;;;;5066411;28;24415;-52
2022/02/22 06:46:54;;;;;;;10.98;3.50;;;;;;;;;;5067527;28;24422;-52
2022/02/22 06:49:20;;;;;;;14.13;3.53;;;;;;;;;;5069462;28;25234;-52
2022/02/22 06:51:45;;;;;;;9.98;2.78;;;;;;;;;;5085735;28;24426;-52
2022/02/22 06:54:10;;;;;;;8.10;2.80;;;;;;;;;;5075232;28;24414;-53
2022/02/22 06:56:35;;;;;;;9.70;3.60;;;;;;;;;;5062648;28;24435;-52
2022/02/22 06:59:00;;;;;;;7.90;3.35;;;;;;;;;;5062525;28;24931;-51
2022/02/22 07:01:25;;;;;;;12.43;3.50;;;;;;;;;;5067135;28;24418;-52
2022/02/22 07:03:50;;;;;;;10.97;3.17;;;;;;;;;;5062851;28;24439;-53
2022/02/22 07:06:16;;;;;;;11.23;3.70;;;;;;;;;;5066166;28;24449;-51
2022/02/22 07:08:41;;;;;;;11.40;3.67;;;;;;;;;;5077399;28;24433;-52
2022/02/22 07:11:06;;;;;;;10.20;3.17;;;;;;;;;;5063287;28;25021;-53
2022/02/22 07:13:31;;;;;;;10.32;3.30;;;;;;;;;;5062879;28;24514;-53
2022/02/22 07:15:56;;;;;;;9.98;3.25;;;;;;;;;;5069612;28;24418;-52
2022/02/22 07:18:22;;;;;;;9.57;3.10;;;;;;;;;;5081978;28;24947;-52
2022/02/22 07:20:47;;;;;;;11.83;4.10;;;;;;;;;;5077496;28;24423;-52
2022/02/22 07:23:12;;;;;;;11.40;3.40;;;;;;;;;;5067091;28;24415;-52
2022/02/22 07:25:37;;;;;;;12.90;3.87;;;;;;;;;;5066026;28;24434;-52
2022/02/22 07:28:03;;;;;;;9.20;3.00;;;;;;;;;;5077050;28;24782;-52
2022/02/22 07:30:28;;;;;;;10.50;3.20;;;;;;;;;;5067876;28;24507;-52
2022/02/22 07:32:55;;;;;;;9.10;3.10;;;;;;;;;;5069452;28;24438;-52
2022/02/22 07:35:20;;;;;;;11.82;3.38;;;;;;;;;;5072337;28;24567;-51
2022/02/22 07:37:46;;;;;;;13.40;3.55;;;;;;;;;;5066852;28;24467;-53
2022/02/22 07:40:13;;;;;;;7.33;2.90;;;;;;;;;;5068755;28;24427;-52
2022/02/22 07:42:39;;;;;;;11.40;3.28;;;;;;;;;;5068405;28;24398;-52
2022/02/22 07:45:05;;;;;;;7.43;3.00;;;;;;;;;;5068930;28;24755;-52
2022/02/22 07:47:30;;;;;;;12.43;3.67;;;;;;;;;;5068369;28;24498;-52
2022/02/22 07:49:55;;;;;;;12.77;3.90;;;;;;;;;;5068799;28;24539;-52
2022/02/22 07:52:21;;;;;;;11.52;3.72;;;;;;;;;;5068612;28;24548;-52
2022/02/22 07:54:47;;;;;;;5.53;2.85;;;;;;;;;;5068430;28;24898;-52
2022/02/22 07:57:12;;;;;;;12.00;3.38;;;;;;;;;;5068813;28;24486;-52
2022/02/22 07:59:37;;;;;;;9.43;3.00;;;;;;;;;;5068126;28;24395;-52
2022/02/22 08:02:03;;;;;;;7.33;3.40;;;;;;;;;;5068368;28;24402;-52
2022/02/22 08:04:28;;;;;;;12.77;3.30;;;;;;;;;;5058800;28;24489;-52
2022/02/22 08:06:57;;;;;;;9.30;3.30;;;;;;;;;;5046617;28;24791;-52
2022/02/22 08:09:22;;;;;;;10.05;2.90;;;;;;;;;;5056877;28;24457;-52
2022/02/22 08:11:48;;;;;;;11.80;3.75;;;;;;;;;;5065412;28;24951;-51
2022/02/22 08:14:13;;;;;;;9.57;3.63;;;;;;;;;;5057875;28;24427;-53
2022/02/22 08:16:38;;;;;;;9.03;3.23;;;;;;;;;;5046591;28;25002;-53
2022/02/22 08:19:03;;;;;;;12.43;3.75;;;;;;;;;;5057355;28;24426;-53
2022/02/22 08:21:28;;;;;;;11.25;3.58;;;;;;;;;;5068404;28;24399;-53
2022/02/22 08:23:54;;;;;;;9.87;3.23;;;;;;;;;;5056736;28;24426;-53
2022/02/22 08:26:19;;;;;;;9.60;3.50;;;;;;;;;;5046952;28;24392;-53
2022/02/22 08:28:44;;;;;;;12.10;3.73;;;;;;;;;;5047857;28;24785;-53
2022/02/22 08:31:09;;;;;;;13.50;3.90;;;;;;;;;;5046180;28;24802;-53
2022/02/22 08:33:35;;;;;;;10.63;3.50;;;;;;;;;;5047220;28;24430;-52
2022/02/22 08:36:00;;;;;;;17.05;4.30;;;;;;;;;;5046577;28;24410;-53
2022/02/22 08:38:25;;;;;;;18.75;4.10;;;;;;;;;;5057108;28;24429;-53
2022/02/22 08:40:50;;;;;;;13.10;3.95;;;;;;;;;;5063109;28;24419;-53
2022/02/22 08:43:16;;;;;;;11.48;3.42;;;;;;;;;;5057031;28;24471;-53
2022/02/22 08:45:43;;;;;;;15.60;4.05;;;;;;;;;;5046029;28;24403;-53
2022/02/22 08:48:08;;;;;;;8.82;3.90;;;;;;;;;;5057083;28;24526;-53
2022/02/22 08:50:34;;;;;;;10.77;3.73;;;;;;;;;;5065087;28;24482;-52
2022/02/22 08:52:59;;;;;;;11.97;4.00;;;;;;;;;;5056363;28;24523;-53
2022/02/22 08:55:24;;;;;;;8.90;4.28;;;;;;;;;;5045646;28;24481;-53
2022/02/22 08:57:49;;;;;;;15.30;4.47;;;;;;;;;;5056606;28;24827;-53
2022/02/22 09:00:15;;;;;;;10.82;4.00;;;;;;;;;;5066264;28;24406;-52
2022/02/22 09:02:40;;;;;;;12.10;3.70;;;;;;;;;;5056233;28;24430;-52
2022/02/22 09:05:06;;;;;;;9.73;4.07;;;;;;;;;;5044967;28;24403;-53
2022/02/22 09:07:31;;;;;;;14.75;4.25;;;;;;;;;;5047265;28;24438;-53
2022/02/22 09:09:56;;;;;;;9.80;3.50;;;;;;;;;;5046970;28;24439;-53
2022/02/22 09:12:22;;;;;;;10.35;3.58;;;;;;;;;;5046263;28;24912;-53
2022/02/22 09:14:47;;;;;;;9.10;3.40;;;;;;;;;;5046280;28;25018;-53
2022/02/22 09:17:12;;;;;;;11.98;4.10;;;;;;;;;;5057294;28;24769;-52
2022/02/22 09:19:37;;;;;;;15.03;4.20;;;;;;;;;;5066958;28;24803;-52
2022/02/22 09:22:03;;;;;;;11.13;3.63;;;;;;;;;;5055634;28;24423;-53
2022/02/22 09:24:28;;;;;;;13.63;3.77;;;;;;;;;;5045672;28;24490;-53
2022/02/22 09:26:53;;;;;;;11.52;3.50;;;;;;;;;;5056288;28;24839;-53
2022/02/22 09:29:18;;;;;;;12.53;3.90;;;;;;;;;;5065189;28;24429;-52
2022/02/22 09:31:44;;;;;;;14.87;4.60;;;;;;;;;;5066883;28;24963;-53
2022/02/22 09:34:10;;;;;;;14.90;3.70;;;;;;;;;;5066528;28;24391;-53
2022/02/22 09:36:35;;;;;;;12.63;3.97;;;;;;;;;;5066347;28;24390;-53
2022/02/22 09:39:00;;;;;;;10.45;3.70;;;;;;;;;;5065977;28;24852;-53
2022/02/22 09:41:25;;;;;;;15.23;4.53;;;;;;;;;;5064139;28;24737;-52
2022/02/22 09:43:50;;;;;;;13.50;3.97;;;;;;;;;;5066089;28;24390;-53
2022/02/22 09:46:15;;;;;;;13.20;4.00;;;;;;;;;;5066997;28;24426;-53
2022/02/22 09:48:41;;;;;;;8.07;3.40;;;;;;;;;;5066474;28;24756;-52
2022/02/22 09:51:06;;;;;;;9.05;2.97;;;;;;;;;;5065847;28;24405;-52
2022/02/22 09:53:32;;;;;;;9.38;3.42;;;;;;;;;;5066558;28;24395;-53
2022/02/22 09:55:57;;;;;;;13.45;3.80;;;;;;;;;;5066166;28;24391;-52
2022/02/22 09:58:23;;;;;;;8.60;3.40;;;;;;;;;;5066258;28;24464;-52
2022/02/22 10:00:58;;;;;;;9.03;3.63;;;;;;;;;;5066063;28;24395;-53
2022/02/22 10:03:23;;;;;;;8.93;3.30;;;;;;;;;;5066123;28;25237;-52
2022/02/22 10:05:53;;;;;;;13.23;3.80;;;;;;;;;;5065974;28;24395;-53
2022/02/22 10:08:23;;;;;;;10.80;3.80;;;;;;;;;;5065962;28;24920;-53
2022/02/22 10:10:48;;;;;;;12.07;3.73;;;;;;;;;;5065871;28;24504;-52
2022/02/22 10:13:17;;;;;;;12.45;4.00;;;;;;;;;;5066067;28;24580;-53
2022/02/22 10:15:44;;;;;;;8.60;3.10;;;;;;;;;;5066110;28;24478;-53
2022/02/22 10:18:10;;;;;;;13.18;3.97;;;;;;;;;;5065704;28;24394;-53
2022/02/22 10:20:35;;;;;;;11.10;3.50;;;;;;;;;;5065498;28;24464;-53
2022/02/22 10:23:02;;;;;;;10.30;3.72;;;;;;;;;;5065801;28;24512;-52
2022/02/22 10:25:27;;;;;;;12.45;3.40;;;;;;;;;;5065805;28;24449;-52
2022/02/22 10:27:54;;;;;;;10.00;3.53;;;;;;;;;;5065636;28;24391;-51
2022/02/22 10:30:29;;;;;;;8.25;3.60;;;;;;;;;;5065727;28;24472;-53
2022/02/22 10:32:55;;;;;;;12.10;4.00;;;;;;;;;;5065424;28;24581;-53
2022/02/22 10:35:26;;;;;;;13.90;3.55;;;;;;;;;;5065691;28;24724;-53
2022/02/22 10:37:52;;;;;;;9.25;3.63;;;;;;;;;;5065613;28;24402;-51
2022/02/22 10:40:24;;;;;;;10.20;3.33;;;;;;;;;;5065917;28;24832;-52
2022/02/22 10:42:49;;;;;;;10.48;3.55;;;;;;;;;;5065405;28;24504;-52
2022/02/22 10:45:14;;;;;;;10.48;3.30;;;;;;;;;;5065768;28;24870;-52
2022/02/22 10:47:40;;;;;;;10.47;3.47;;;;;;;;;;5065763;28;24387;-51
2022/02/22 10:50:05;;;;;;;13.10;3.65;;;;;;;;;;5065079;28;24745;-52
2022/02/22 10:52:31;;;;;;;9.27;3.43;;;;;;;;;;5065525;28;24515;-52
2022/02/22 10:55:00;;;;;;;9.37;3.43;;;;;;;;;;5065578;28;24990;-52
2022/02/22 10:57:25;;;;;;;10.23;3.63;;;;;;;;;;5065704;28;24426;-52
2022/02/22 10:59:50;;;;;;;9.60;3.67;;;;;;;;;;5065598;28;24431;-52
2022/02/22 11:02:16;;;;;;;10.10;3.50;;;;;;;;;;5065203;28;24479;-51
2022/02/22 11:04:41;;;;;;;6.60;3.40;;;;;;;;;;5065354;28;25120;-52
2022/02/22 11:07:07;;;;;;;9.07;3.30;;;;;;;;;;5065326;28;24539;-51
2022/02/22 11:09:32;;;;;;;9.55;3.10;;;;;;;;;;5065617;28;24422;-53
2022/02/22 11:12:02;;;;;;;12.47;3.67;;;;;;;;;;5065046;28;24812;-52
2022/02/22 11:14:29;;;;;;;10.23;3.40;;;;;;;;;;5065386;28;24395;-53
2022/02/22 11:16:54;;;;;;;12.52;3.20;;;;;;;;;;5065406;28;25044;-51
2022/02/22 11:19:27;;;;;;;11.43;3.70;;;;;;;;;;5065196;28;24498;-52
2022/02/22 11:21:53;;;;;;;12.15;3.50;;;;;;;;;;5065252;28;24987;-53
2022/02/22 11:24:21;;;;;;;10.15;3.10;;;;;;;;;;5065082;28;24978;-53
2022/02/22 11:26:51;;;;;;;9.07;2.95;;;;;;;;;;5054028;28;24505;-53
2022/02/22 11:29:17;;;;;;;8.77;3.40;;;;;;;;;;5045246;28;24394;-53
2022/02/22 11:31:54;;;;;;;10.27;3.63;;;;;;;;;;5053541;28;24581;-52
2022/02/22 11:34:27;;;;;;;11.03;3.53;;;;;;;;;;5064926;28;24422;-54
2022/02/22 11:36:53;;;;;;;10.00;3.80;;;;;;;;;;5052212;28;24422;-53
2022/02/22 11:39:20;;;;;;;11.23;3.53;;;;;;;;;;5045281;28;24840;-52
2022/02/22 11:41:45;;;;;;;19.42;5.10;;;;;;;;;;5045204;28;24522;-53
2022/02/22 11:44:15;;;;;;;9.70;3.00;;;;;;;;;;5044687;28;24999;-53
2022/02/22 11:46:47;;;;;;;14.75;3.70;;;;;;;;;;5044915;28;25040;-54
2022/02/22 11:49:39;;;;;;;9.93;3.00;;;;;;;;;;5044743;28;24931;-52
2022/02/22 11:52:09;;;;;;;8.98;3.40;;;;;;;;;;5039484;28;24932;-53
2022/02/22 11:54:35;;;;;;;10.55;3.08;;;;;;;;;;5045189;28;24439;-53
2022/02/22 11:57:08;;;;;;;9.77;3.10;;;;;;;;;;5044740;28;24403;-54
2022/02/22 11:59:49;;;;;;;10.98;3.25;;;;;;;;;;5044994;28;24383;-53
2022/02/22 12:02:25;;;;;;;8.38;2.90;;;;;;;;;;5047677;28;24387;-53
2022/02/22 12:04:51;;;;;;;11.57;3.13;;;;;;;;;;5049064;28;24410;-53
2022/02/22 12:07:24;;;;;;;11.15;3.30;;;;;;;;;;5048348;28;24482;-52
2022/02/22 12:09:55;;;;;;;7.90;2.73;;;;;;;;;;5048914;28;25036;-52
2022/02/22 12:12:21;;;;;;;7.50;2.63;;;;;;;;;;5048353;28;24505;-53
2022/02/22 12:14:51;;;;;;;9.27;2.90;;;;;;;;;;5048454;28;24406;-53
2022/02/22 12:17:16;;;;;;;8.85;3.28;;;;;;;;;;5047970;28;24402;-53
2022/02/22 12:19:41;;;;;;;9.30;3.40;;;;;;;;;;5048017;28;24387;-53
2022/02/22 12:22:06;;;;;;;10.67;3.00;;;;;;;;;;5048223;28;24763;-53
2022/02/22 12:24:32;;;;;;;8.60;2.60;;;;;;;;;;5048355;28;24929;-53
2022/02/22 12:26:58;;;;;;;10.48;3.25;;;;;;;;;;5048158;28;24773;-54
2022/02/22 12:29:24;;;;;;;9.77;3.10;;;;;;;;;;5048079;28;24948;-53
2022/02/22 12:31:54;;;;;;;8.95;3.30;;;;;;;;;;5048043;28;24411;-54
2022/02/22 12:34:20;;;;;;;13.18;3.70;;;;;;;;;;5047546;28;24397;-54
2022/02/22 12:36:46;;;;;;;8.50;3.20;;;;;;;;;;5047855;28;24395;-54
2022/02/22 12:39:13;;;;;;;8.63;2.80;;;;;;;;;;5047654;28;24434;-53
2022/02/22 12:41:39;;;;;;;8.35;2.80;;;;;;;;;;5047841;28;24498;-52
2022/02/22 12:44:08;;;;;;;9.80;3.42;;;;;;;;;;5047558;28;24750;-52
2022/02/22 12:46:33;;;;;;;7.93;3.20;;;;;;;;;;5047717;28;24423;-53
2022/02/22 12:49:02;;;;;;;8.85;2.92;;;;;;;;;;5047422;28;24442;-53
2022/02/22 12:51:28;;;;;;;11.35;3.35;;;;;;;;;;5047470;28;24828;-53
2022/02/22 12:53:57;;;;;;;8.93;3.00;;;;;;;;;;5047517;28;24449;-53
2022/02/22 12:56:29;;;;;;;6.78;2.50;;;;;;;;;;5047495;28;24475;-53
2022/02/22 12:58:54;;;;;;;8.88;2.80;;;;;;;;;;5062275;28;24403;-52
2022/02/22 13:01:20;;;;;;;7.93;2.70;;;;;;;;;;5066848;28;24416;-53
2022/02/22 13:03:46;;;;;;;7.35;2.97;;;;;;;;;;5067405;28;24409;-52
2022/02/22 13:06:12;;;;;;;9.35;2.90;;;;;;;;;;5067199;28;24803;-52
2022/02/22 13:08:38;;;;;;;8.87;3.00;;;;;;;;;;5067515;28;24966;-52
2022/02/22 13:11:04;;;;;;;9.10;2.83;;;;;;;;;;5067207;28;24429;-53
2022/02/22 13:13:29;;;;;;;6.65;2.40;;;;;;;;;;5066574;28;24928;-53
2022/02/22 13:15:55;;;;;;;9.13;2.80;;;;;;;;;;5066998;28;24395;-53
2022/02/22 13:18:22;;;;;;;9.82;2.95;;;;;;;;;;5066651;28;24429;-53
2022/02/22 13:20:49;;;;;;;8.15;2.90;;;;;;;;;;5067025;28;25074;-52
2022/02/22 13:23:14;;;;;;;11.00;3.58;;;;;;;;;;5067087;28;24394;-53
2022/02/22 13:25:40;;;;;;;8.82;2.45;;;;;;;;;;5067033;28;24394;-53
2022/02/22 13:28:06;;;;;;;6.35;2.45;;;;;;;;;;5066903;28;24394;-52
2022/02/22 13:30:35;;;;;;;8.97;3.17;;;;;;;;;;5066629;28;24456;-52
2022/02/22 13:33:05;;;;;;;8.23;2.80;;;;;;;;;;5065829;28;24816;-52
2022/02/22 13:35:30;;;;;;;8.33;2.50;;;;;;;;;;5066697;28;24529;-52
2022/02/22 13:37:57;;;;;;;8.57;2.97;;;;;;;;;;5066861;28;24429;-53
2022/02/22 13:40:27;;;;;;;8.73;3.00;;;;;;;;;;5064810;28;24810;-52
2022/02/22 13:43:04;;;;;;;7.47;2.85;;;;;;;;;;5043681;28;24407;-53
2022/02/22 13:45:31;;;;;;;7.60;2.60;;;;;;;;;;5046179;28;24926;-53
2022/02/22 13:48:04;;;;;;;8.93;2.63;;;;;;;;;;5043667;28;24391;-53
2022/02/22 13:50:29;;;;;;;11.20;3.20;;;;;;;;;;5047441;28;24426;-53
2022/02/22 13:52:54;;;;;;;5.83;2.80;;;;;;;;;;5043596;28;25038;-53
2022/02/22 13:55:19;;;;;;;7.93;2.88;;;;;;;;;;5048128;28;24425;-53
2022/02/22 13:57:47;;;;;;;4.85;2.80;;;;;;;;;;5064689;28;24478;-53
2022/02/22 14:00:12;;;;;;;8.23;3.40;;;;;;;;;;5062504;28;24465;-53
2022/02/22 14:02:38;;;;;;;8.57;2.73;;;;;;;;;;5045557;28;24748;-53
2022/02/22 14:05:04;;;;;;;6.90;2.50;;;;;;;;;;5045745;28;24419;-53
2022/02/22 14:07:29;;;;;;;6.35;2.25;;;;;;;;;;5046124;28;24403;-53
2022/02/22 14:09:54;;;;;;;5.00;2.70;;;;;;;;;;5045307;28;24549;-52
2022/02/22 14:12:19;;;;;;;7.03;2.70;;;;;;;;;;5044207;28;24412;-53
2022/02/22 14:14:45;;;;;;;7.33;2.43;;;;;;;;;;5048249;28;24454;-53
2022/02/22 14:17:10;;;;;;;6.43;2.30;;;;;;;;;;5064108;28;24395;-53
2022/02/22 14:19:35;;;;;;;6.60;2.57;;;;;;;;;;5064108;28;24438;-53
2022/02/22 14:22:00;;;;;;;8.63;2.63;;;;;;;;;;5064448;28;24406;-53
2022/02/22 14:24:25;;;;;;;8.20;2.67;;;;;;;;;;5063870;28;24430;-53
2022/02/22 14:26:50;;;;;;;7.78;2.50;;;;;;;;;;5064012;28;24411;-52
2022/02/22 14:29:17;;;;;;;7.50;2.70;;;;;;;;;;5062480;28;25460;-53
2022/02/22 14:31:42;;;;;;;5.95;2.53;;;;;;;;;;5044031;28;24419;-53
2022/02/22 14:34:07;;;;;;;4.97;2.40;;;;;;;;;;5047087;28;24684;-53
2022/02/22 14:36:33;;;;;;;9.37;2.90;;;;;;;;;;5063221;28;24398;-53
2022/02/22 14:38:59;;;;;;;8.25;2.67;;;;;;;;;;5062061;28;24875;-53